createdAt,value
2017-10-31T01:36:05.854Z,1025.85
2017-10-31T01:36:06.429Z,1025.87
2017-10-31T01:36:07.042Z,1025.83
2017-10-31T01:36:07.631Z,1025.85
2017-10-31T01:36:08.230Z,1025.86
2017-10-31T01:36:08.829Z,1025.83
2017-10-31T01:36:09.432Z,1025.86
2017-10-31T01:36:10.029Z,1025.82
2017-10-31T01:37:05.051Z,1025.86
2017-10-31T01:37:05.630Z,1025.84
2017-10-31T01:37:06.221Z,1025.86
2017-10-31T01:37:06.817Z,1025.85
2017-10-31T01:37:07.418Z,1025.88
2017-10-31T01:37:08.019Z,1025.87
2017-10-31T01:37:08.615Z,1025.84
2017-10-31T01:38:03.105Z,1025.85
2017-10-31T01:38:03.680Z,1025.86
2017-10-31T01:38:04.290Z,1025.84
2017-10-31T01:38:04.885Z,1025.83
2017-10-31T01:38:05.481Z,1025.83
2017-10-31T01:38:06.079Z,1025.87
2017-10-31T01:38:06.679Z,1025.87
2017-10-31T01:38:07.278Z,1025.86
2017-10-31T01:39:01.781Z,1025.86
2017-10-31T01:39:02.356Z,1025.90
2017-10-31T01:39:02.956Z,1025.86
2017-10-31T01:39:03.556Z,1025.86
2017-10-31T01:39:04.156Z,1025.85
2017-10-31T01:39:04.756Z,1025.84
2017-10-31T01:39:05.387Z,1025.86
2017-10-31T01:39:05.964Z,1025.88
2017-10-31T01:39:59.437Z,1025.87
2017-10-31T01:40:00.009Z,1025.87
2017-10-31T01:40:00.615Z,1025.85
2017-10-31T01:40:01.208Z,1025.87
2017-10-31T01:40:01.809Z,1025.86
2017-10-31T01:40:02.408Z,1025.88
2017-10-31T01:40:03.009Z,1025.88
2017-10-31T01:40:03.606Z,1025.84
2017-10-31T01:40:57.087Z,1025.84
2017-10-31T01:40:57.669Z,1025.87
2017-10-31T01:40:58.267Z,1025.88
2017-10-31T01:40:58.860Z,1025.83
2017-10-31T01:40:59.459Z,1025.80
2017-10-31T01:41:00.059Z,1025.87
2017-10-31T01:41:00.659Z,1025.85
2017-10-31T01:41:01.260Z,1025.86
2017-10-31T01:41:54.738Z,1025.83
2017-10-31T01:41:55.316Z,1025.84
2017-10-31T01:41:55.915Z,1025.87
2017-10-31T01:41:56.512Z,1025.87
2017-10-31T01:41:57.110Z,1025.83
2017-10-31T01:41:57.715Z,1025.83
2017-10-31T01:41:58.311Z,1025.84
2017-10-31T01:41:58.918Z,1025.85
2017-10-31T01:42:53.413Z,1025.89
2017-10-31T01:42:53.990Z,1025.89
2017-10-31T01:42:54.588Z,1025.85
2017-10-31T01:42:55.188Z,1025.85
2017-10-31T01:42:55.789Z,1025.83
2017-10-31T01:42:56.387Z,1025.82
2017-10-31T01:42:56.987Z,1025.86
2017-10-31T01:42:57.588Z,1025.85
2017-10-31T01:43:51.067Z,1025.86
2017-10-31T01:43:51.644Z,1025.85
2017-10-31T01:43:52.240Z,1025.84
2017-10-31T01:43:52.843Z,1025.85
2017-10-31T01:43:53.440Z,1025.89
2017-10-31T01:43:54.041Z,1025.86
2017-10-31T01:43:54.640Z,1025.86
2017-10-31T01:43:55.248Z,1025.86
2017-10-31T01:44:49.745Z,1025.86
2017-10-31T01:44:50.320Z,1025.88
2017-10-31T01:44:50.919Z,1025.82
2017-10-31T01:44:51.515Z,1025.86
2017-10-31T01:44:52.115Z,1025.84
2017-10-31T01:44:52.715Z,1025.86
2017-10-31T01:44:53.314Z,1025.84
2017-10-31T01:44:53.918Z,1025.86
2017-10-31T01:45:48.416Z,1025.84
2017-10-31T01:45:48.996Z,1025.87
2017-10-31T01:45:49.598Z,1025.79
2017-10-31T01:45:50.193Z,1025.84
2017-10-31T01:45:50.793Z,1025.86
2017-10-31T01:45:51.390Z,1025.85
2017-10-31T01:45:51.991Z,1025.84
2017-10-31T01:45:52.590Z,1025.86
2017-10-31T01:46:46.069Z,1025.86
2017-10-31T01:46:46.648Z,1025.87
2017-10-31T01:46:47.244Z,1025.84
2017-10-31T01:46:47.844Z,1025.88
2017-10-31T01:46:48.443Z,1025.87
2017-10-31T01:46:49.044Z,1025.84
2017-10-31T01:46:49.642Z,1025.89
2017-10-31T01:46:50.244Z,1025.85
2017-10-31T01:47:44.746Z,1025.87
2017-10-31T01:47:45.322Z,1025.88
2017-10-31T01:47:45.917Z,1025.86
2017-10-31T01:47:46.517Z,1025.84
2017-10-31T01:47:47.116Z,1025.88
2017-10-31T01:47:47.716Z,1025.85
2017-10-31T01:47:48.316Z,1025.88
2017-10-31T01:47:48.916Z,1025.85
2017-10-31T01:48:42.402Z,1025.88
2017-10-31T01:48:42.975Z,1025.90
2017-10-31T01:48:43.571Z,1025.86
2017-10-31T01:48:44.175Z,1025.85
2017-10-31T01:48:44.770Z,1025.83
2017-10-31T01:48:45.370Z,1025.88
2017-10-31T01:48:45.970Z,1025.88
2017-10-31T01:48:46.572Z,1025.82
2017-10-31T01:49:41.071Z,1025.86
2017-10-31T01:49:41.647Z,1025.85
2017-10-31T01:49:42.247Z,1025.86
2017-10-31T01:49:42.846Z,1025.87
2017-10-31T01:49:43.446Z,1025.90
2017-10-31T01:49:44.055Z,1025.86
2017-10-31T01:49:44.653Z,1025.86
2017-10-31T01:49:45.248Z,1025.88
2017-10-31T01:50:38.724Z,1025.86
2017-10-31T01:50:39.298Z,1025.87
2017-10-31T01:50:39.898Z,1025.82
2017-10-31T01:50:40.498Z,1025.87
2017-10-31T01:50:41.098Z,1025.83
2017-10-31T01:50:41.697Z,1025.87
2017-10-31T01:50:42.296Z,1025.86
2017-10-31T01:50:42.899Z,1025.83
2017-10-31T01:51:36.378Z,1025.83
2017-10-31T01:51:36.957Z,1025.86
2017-10-31T01:51:37.550Z,1025.85
2017-10-31T01:51:38.151Z,1025.87
2017-10-31T01:51:38.750Z,1025.84
2017-10-31T01:51:39.351Z,1025.88
2017-10-31T01:51:39.951Z,1025.88
2017-10-31T01:51:40.550Z,1025.85
2017-10-31T01:52:34.028Z,1025.82
2017-10-31T01:52:34.602Z,1025.82
2017-10-31T01:52:35.208Z,1025.82
2017-10-31T01:52:35.804Z,1025.82
2017-10-31T01:52:36.401Z,1025.83
2017-10-31T01:52:37.005Z,1025.82
2017-10-31T01:52:37.601Z,1025.83
2017-10-31T01:52:38.202Z,1025.86
2017-10-31T01:53:32.711Z,1025.85
2017-10-31T01:53:33.277Z,1025.88
2017-10-31T01:53:33.886Z,1025.82
2017-10-31T01:53:34.476Z,1025.86
2017-10-31T01:53:35.076Z,1025.81
2017-10-31T01:53:35.677Z,1025.81
2017-10-31T01:53:36.275Z,1025.84
2017-10-31T01:53:36.878Z,1025.81
2017-10-31T01:54:31.378Z,1025.79
2017-10-31T01:54:31.952Z,1025.84
2017-10-31T01:54:32.553Z,1025.81
2017-10-31T01:54:33.153Z,1025.81
2017-10-31T01:54:33.758Z,1025.83
2017-10-31T01:54:34.353Z,1025.82
2017-10-31T01:54:34.950Z,1025.83
2017-10-31T01:54:35.554Z,1025.82
2017-10-31T01:55:29.544Z,1025.86
2017-10-31T01:55:30.117Z,1025.83
2017-10-31T01:55:30.715Z,1025.82
2017-10-31T01:55:31.316Z,1025.86
2017-10-31T01:55:31.917Z,1025.86
2017-10-31T01:55:32.516Z,1025.87
2017-10-31T01:55:33.120Z,1025.84
2017-10-31T01:56:26.580Z,1025.89
2017-10-31T01:56:27.156Z,1025.88
2017-10-31T01:56:27.754Z,1025.90
2017-10-31T01:56:28.354Z,1025.89
2017-10-31T01:56:28.957Z,1025.92
2017-10-31T01:56:29.580Z,1025.90
2017-10-31T01:56:30.154Z,1025.93
2017-10-31T01:56:30.763Z,1025.92
2017-10-31T01:57:25.259Z,1025.89
2017-10-31T01:57:25.830Z,1025.88
2017-10-31T01:57:26.431Z,1025.92
2017-10-31T01:57:27.033Z,1025.85
2017-10-31T01:57:27.629Z,1025.90
2017-10-31T01:57:28.230Z,1025.84
2017-10-31T01:57:28.829Z,1025.85
2017-10-31T01:57:29.438Z,1025.88
2017-10-31T01:58:22.908Z,1025.87
2017-10-31T01:58:23.483Z,1025.85
2017-10-31T01:58:24.082Z,1025.86
2017-10-31T01:58:24.682Z,1025.86
2017-10-31T01:58:25.282Z,1025.84
2017-10-31T01:58:25.883Z,1025.85
2017-10-31T01:58:26.482Z,1025.86
2017-10-31T01:58:27.086Z,1025.89
2017-10-31T01:59:20.564Z,1025.85
2017-10-31T01:59:21.137Z,1025.89
2017-10-31T01:59:21.747Z,1025.88
2017-10-31T01:59:22.333Z,1025.85
2017-10-31T01:59:22.934Z,1025.90
2017-10-31T01:59:23.533Z,1025.87
2017-10-31T01:59:24.134Z,1025.82
2017-10-31T01:59:24.732Z,1025.85
2017-10-31T02:00:19.238Z,1025.84
2017-10-31T02:00:19.808Z,1025.86
2017-10-31T02:00:20.409Z,1025.82
2017-10-31T02:00:21.008Z,1025.83
2017-10-31T02:00:21.607Z,1025.84
2017-10-31T02:00:22.209Z,1025.85
2017-10-31T02:00:22.809Z,1025.86
2017-10-31T02:00:23.416Z,1025.85
2017-10-31T02:01:16.888Z,1025.85
2017-10-31T02:01:17.464Z,1025.83
2017-10-31T02:01:18.060Z,1025.79
2017-10-31T02:01:18.661Z,1025.82
2017-10-31T02:01:19.260Z,1025.85
2017-10-31T02:01:19.860Z,1025.83
2017-10-31T02:01:20.464Z,1025.85
2017-10-31T02:01:21.061Z,1025.88
2017-10-31T02:02:14.540Z,1025.84
2017-10-31T02:02:15.131Z,1025.87
2017-10-31T02:02:15.713Z,1025.83
2017-10-31T02:02:16.313Z,1025.81
2017-10-31T02:02:16.913Z,1025.83
2017-10-31T02:02:17.512Z,1025.81
2017-10-31T02:02:18.112Z,1025.81
2017-10-31T02:02:18.714Z,1025.82
2017-10-31T02:03:13.216Z,1025.80
2017-10-31T02:03:13.793Z,1025.78
2017-10-31T02:03:14.396Z,1025.76
2017-10-31T02:03:14.990Z,1025.83
2017-10-31T02:03:15.592Z,1025.80
2017-10-31T02:03:16.188Z,1025.80
2017-10-31T02:03:16.787Z,1025.83
2017-10-31T02:03:17.387Z,1025.83
2017-10-31T02:04:11.888Z,1025.77
2017-10-31T02:04:12.464Z,1025.81
2017-10-31T02:04:13.062Z,1025.80
2017-10-31T02:04:13.664Z,1025.79
2017-10-31T02:04:14.264Z,1025.78
2017-10-31T02:04:14.867Z,1025.79
2017-10-31T02:04:15.465Z,1025.80
2017-10-31T02:04:16.067Z,1025.83
2017-10-31T02:05:10.568Z,1025.77
2017-10-31T02:05:11.151Z,1025.78
2017-10-31T02:05:11.740Z,1025.76
2017-10-31T02:05:12.338Z,1025.78
2017-10-31T02:05:12.937Z,1025.80
2017-10-31T02:05:13.541Z,1025.79
2017-10-31T02:05:14.140Z,1025.75
2017-10-31T02:05:14.743Z,1025.76
2017-10-31T02:06:09.241Z,1025.78
2017-10-31T02:06:09.819Z,1025.78
2017-10-31T02:06:10.413Z,1025.81
2017-10-31T02:06:11.013Z,1025.76
2017-10-31T02:06:11.614Z,1025.78
2017-10-31T02:06:12.213Z,1025.76
2017-10-31T02:06:12.817Z,1025.81
2017-10-31T02:06:13.414Z,1025.81
2017-10-31T02:07:06.891Z,1025.76
2017-10-31T02:07:07.467Z,1025.78
2017-10-31T02:07:08.068Z,1025.77
2017-10-31T02:07:08.668Z,1025.79
2017-10-31T02:07:09.266Z,1025.81
2017-10-31T02:07:09.866Z,1025.79
2017-10-31T02:07:10.466Z,1025.78
2017-10-31T02:07:11.067Z,1025.82
2017-10-31T02:08:05.569Z,1025.79
2017-10-31T02:08:06.141Z,1025.81
2017-10-31T02:08:06.742Z,1025.79
2017-10-31T02:08:07.347Z,1025.79
2017-10-31T02:08:07.943Z,1025.78
2017-10-31T02:08:08.541Z,1025.78
2017-10-31T02:08:09.140Z,1025.75
2017-10-31T02:08:09.742Z,1025.80
2017-10-31T02:09:03.220Z,1025.77
2017-10-31T02:09:03.795Z,1025.78
2017-10-31T02:09:04.395Z,1025.73
2017-10-31T02:09:04.994Z,1025.76
2017-10-31T02:09:05.594Z,1025.72
2017-10-31T02:09:06.194Z,1025.71
2017-10-31T02:09:06.794Z,1025.75
2017-10-31T02:09:07.394Z,1025.77
2017-10-31T02:10:01.896Z,1025.78
2017-10-31T02:10:02.469Z,1025.76
2017-10-31T02:10:03.070Z,1025.79
2017-10-31T02:10:03.670Z,1025.76
2017-10-31T02:10:04.268Z,1025.76
2017-10-31T02:10:04.870Z,1025.76
2017-10-31T02:10:05.468Z,1025.79
2017-10-31T02:10:06.068Z,1025.80
2017-10-31T02:10:59.547Z,1025.77
2017-10-31T02:11:00.121Z,1025.78
2017-10-31T02:11:00.721Z,1025.73
2017-10-31T02:11:01.324Z,1025.71
2017-10-31T02:11:01.921Z,1025.70
2017-10-31T02:11:02.521Z,1025.75
2017-10-31T02:11:03.121Z,1025.75
2017-10-31T02:11:03.721Z,1025.74
2017-10-31T02:11:58.223Z,1025.74
2017-10-31T02:11:58.797Z,1025.71
2017-10-31T02:11:59.396Z,1025.74
2017-10-31T02:12:00.000Z,1025.71
2017-10-31T02:12:00.597Z,1025.72
2017-10-31T02:12:01.196Z,1025.75
2017-10-31T02:12:01.795Z,1025.75
2017-10-31T02:12:02.402Z,1025.72
2017-10-31T02:12:56.899Z,1025.73
2017-10-31T02:12:57.471Z,1025.73
2017-10-31T02:12:58.073Z,1025.73
2017-10-31T02:12:58.673Z,1025.74
2017-10-31T02:12:59.272Z,1025.73
2017-10-31T02:12:59.872Z,1025.72
2017-10-31T02:13:00.475Z,1025.74
2017-10-31T02:13:01.071Z,1025.71
2017-10-31T02:13:55.577Z,1025.72
2017-10-31T02:13:56.151Z,1025.75
2017-10-31T02:13:56.747Z,1025.72
2017-10-31T02:13:57.348Z,1025.73
2017-10-31T02:13:57.950Z,1025.68
2017-10-31T02:13:58.546Z,1025.72
2017-10-31T02:13:59.146Z,1025.71
2017-10-31T02:13:59.755Z,1025.69
2017-10-31T02:14:54.248Z,1025.75
2017-10-31T02:14:54.823Z,1025.74
2017-10-31T02:14:55.423Z,1025.71
2017-10-31T02:14:56.023Z,1025.71
2017-10-31T02:14:56.623Z,1025.74
2017-10-31T02:14:57.222Z,1025.76
2017-10-31T02:14:57.831Z,1025.74
2017-10-31T02:14:58.423Z,1025.74
2017-10-31T02:15:52.925Z,1025.75
2017-10-31T02:15:53.499Z,1025.75
2017-10-31T02:15:54.102Z,1025.72
2017-10-31T02:15:54.699Z,1025.74
2017-10-31T02:15:55.296Z,1025.69
2017-10-31T02:15:55.896Z,1025.71
2017-10-31T02:15:56.495Z,1025.69
2017-10-31T02:15:57.096Z,1025.69
2017-10-31T02:16:50.577Z,1025.71
2017-10-31T02:16:51.150Z,1025.72
2017-10-31T02:16:51.751Z,1025.72
2017-10-31T02:16:52.351Z,1025.73
2017-10-31T02:16:52.954Z,1025.68
2017-10-31T02:16:53.550Z,1025.72
2017-10-31T02:16:54.151Z,1025.73
2017-10-31T02:16:54.751Z,1025.73
2017-10-31T02:17:48.331Z,1025.74
2017-10-31T02:17:48.907Z,1025.75
2017-10-31T02:17:49.506Z,1025.72
2017-10-31T02:17:50.106Z,1025.73
2017-10-31T02:17:50.705Z,1025.74
2017-10-31T02:17:51.304Z,1025.75
2017-10-31T02:17:51.903Z,1025.71
2017-10-31T02:17:52.503Z,1025.77
2017-10-31T02:18:46.494Z,1025.72
2017-10-31T02:18:47.072Z,1025.69
2017-10-31T02:18:47.668Z,1025.71
2017-10-31T02:18:48.270Z,1025.75
2017-10-31T02:18:48.873Z,1025.71
2017-10-31T02:18:49.470Z,1025.75
2017-10-31T02:18:50.068Z,1025.74
2017-10-31T02:19:43.531Z,1025.76
2017-10-31T02:19:44.110Z,1025.71
2017-10-31T02:19:44.706Z,1025.73
2017-10-31T02:19:45.306Z,1025.76
2017-10-31T02:19:45.906Z,1025.72
2017-10-31T02:19:46.505Z,1025.78
2017-10-31T02:19:47.105Z,1025.76
2017-10-31T02:19:47.705Z,1025.78
2017-10-31T02:20:41.186Z,1025.73
2017-10-31T02:20:41.758Z,1025.74
2017-10-31T02:20:42.357Z,1025.73
2017-10-31T02:20:42.957Z,1025.73
2017-10-31T02:20:43.557Z,1025.76
2017-10-31T02:20:44.156Z,1025.73
2017-10-31T02:20:44.762Z,1025.76
2017-10-31T02:20:45.357Z,1025.75
2017-10-31T02:21:38.839Z,1025.70
2017-10-31T02:21:39.455Z,1025.71
2017-10-31T02:21:40.012Z,1025.69
2017-10-31T02:21:40.610Z,1025.68
2017-10-31T02:21:41.208Z,1025.75
2017-10-31T02:21:41.807Z,1025.73
2017-10-31T02:21:42.408Z,1025.76
2017-10-31T02:21:43.008Z,1025.72
2017-10-31T02:22:36.998Z,1025.73
2017-10-31T02:22:37.576Z,1025.71
2017-10-31T02:22:38.173Z,1025.75
2017-10-31T02:22:38.772Z,1025.70
2017-10-31T02:22:39.372Z,1025.73
2017-10-31T02:22:39.973Z,1025.73
2017-10-31T02:22:40.574Z,1025.71
2017-10-31T02:23:34.035Z,1025.71
2017-10-31T02:23:34.610Z,1025.72
2017-10-31T02:23:35.210Z,1025.68
2017-10-31T02:23:35.810Z,1025.69
2017-10-31T02:23:36.410Z,1025.72
2017-10-31T02:23:37.010Z,1025.72
2017-10-31T02:23:37.610Z,1025.70
2017-10-31T02:23:38.216Z,1025.69
2017-10-31T02:24:44.385Z,1025.72
2017-10-31T02:24:44.962Z,1025.73
2017-10-31T02:24:45.564Z,1025.74
2017-10-31T02:24:46.159Z,1025.73
2017-10-31T02:24:46.759Z,1025.73
2017-10-31T02:24:47.358Z,1025.73
2017-10-31T02:24:47.959Z,1025.73
2017-10-31T02:24:48.560Z,1025.72
2017-10-31T02:25:42.041Z,1025.73
2017-10-31T02:25:42.610Z,1025.71
2017-10-31T02:25:43.212Z,1025.74
2017-10-31T02:25:43.813Z,1025.73
2017-10-31T02:25:44.412Z,1025.74
2017-10-31T02:25:45.011Z,1025.74
2017-10-31T02:25:45.610Z,1025.70
2017-10-31T02:25:46.209Z,1025.70
2017-10-31T02:26:40.712Z,1025.70
2017-10-31T02:26:41.287Z,1025.72
2017-10-31T02:26:41.889Z,1025.73
2017-10-31T02:26:42.486Z,1025.73
2017-10-31T02:26:43.086Z,1025.71
2017-10-31T02:26:43.686Z,1025.70
2017-10-31T02:26:44.285Z,1025.71
2017-10-31T02:26:44.887Z,1025.68
2017-10-31T02:27:38.374Z,1025.73
2017-10-31T02:27:38.939Z,1025.70
2017-10-31T02:27:39.539Z,1025.71
2017-10-31T02:27:40.138Z,1025.70
2017-10-31T02:27:40.738Z,1025.67
2017-10-31T02:27:41.339Z,1025.67
2017-10-31T02:27:41.938Z,1025.71
2017-10-31T02:27:42.539Z,1025.70
2017-10-31T02:28:36.019Z,1025.68
2017-10-31T02:28:36.592Z,1025.73
2017-10-31T02:28:37.190Z,1025.69
2017-10-31T02:28:37.790Z,1025.66
2017-10-31T02:28:38.390Z,1025.69
2017-10-31T02:28:38.991Z,1025.70
2017-10-31T02:28:39.590Z,1025.69
2017-10-31T02:28:40.189Z,1025.69
2017-10-31T02:29:33.667Z,1025.68
2017-10-31T02:29:34.243Z,1025.67
2017-10-31T02:29:34.846Z,1025.68
2017-10-31T02:29:35.441Z,1025.70
2017-10-31T02:29:36.044Z,1025.68
2017-10-31T02:29:36.641Z,1025.68
2017-10-31T02:29:37.242Z,1025.67
2017-10-31T02:29:37.840Z,1025.70
2017-10-31T02:30:31.319Z,1025.70
2017-10-31T02:30:31.893Z,1025.69
2017-10-31T02:30:32.493Z,1025.66
2017-10-31T02:30:33.093Z,1025.68
2017-10-31T02:30:33.700Z,1025.71
2017-10-31T02:30:34.293Z,1025.70
2017-10-31T02:30:34.893Z,1025.71
2017-10-31T02:30:35.492Z,1025.69
2017-10-31T02:31:29.995Z,1025.67
2017-10-31T02:31:30.569Z,1025.70
2017-10-31T02:31:31.170Z,1025.67
2017-10-31T02:31:31.770Z,1025.67
2017-10-31T02:31:32.367Z,1025.70
2017-10-31T02:31:32.966Z,1025.68
2017-10-31T02:31:33.578Z,1025.68
2017-10-31T02:31:34.178Z,1025.70
2017-10-31T02:32:27.649Z,1025.70
2017-10-31T02:32:28.223Z,1025.70
2017-10-31T02:32:28.820Z,1025.67
2017-10-31T02:32:29.420Z,1025.68
2017-10-31T02:32:30.022Z,1025.67
2017-10-31T02:32:30.626Z,1025.69
2017-10-31T02:32:31.220Z,1025.70
2017-10-31T02:32:31.819Z,1025.70
2017-10-31T02:33:25.298Z,1025.69
2017-10-31T02:33:25.873Z,1025.67
2017-10-31T02:33:26.471Z,1025.71
2017-10-31T02:33:27.072Z,1025.66
2017-10-31T02:33:27.678Z,1025.68
2017-10-31T02:33:28.278Z,1025.69
2017-10-31T02:33:28.872Z,1025.68
2017-10-31T02:33:29.471Z,1025.66
2017-10-31T02:50:15.586Z,1025.69
2017-10-31T02:50:16.153Z,1025.69
2017-10-31T02:50:16.753Z,1025.67
2017-10-31T02:50:17.353Z,1025.70
2017-10-31T02:50:17.955Z,1025.71
2017-10-31T02:50:18.551Z,1025.68
2017-10-31T02:50:19.155Z,1025.67
2017-10-31T02:50:19.751Z,1025.68
2017-10-31T02:51:13.743Z,1025.70
2017-10-31T02:51:14.319Z,1025.67
2017-10-31T02:51:14.918Z,1025.67
2017-10-31T02:51:15.517Z,1025.66
2017-10-31T02:51:16.119Z,1025.68
2017-10-31T02:51:16.717Z,1025.66
2017-10-31T02:51:17.316Z,1025.69
2017-10-31T02:52:11.806Z,1025.71
2017-10-31T02:52:12.380Z,1025.69
2017-10-31T02:52:12.980Z,1025.66
2017-10-31T02:52:13.578Z,1025.69
2017-10-31T02:52:14.178Z,1025.64
2017-10-31T02:52:14.778Z,1025.66
2017-10-31T02:52:15.380Z,1025.68
2017-10-31T02:52:15.977Z,1025.68
2017-10-31T02:53:09.457Z,1025.68
2017-10-31T02:53:10.041Z,1025.69
2017-10-31T02:53:10.631Z,1025.71
2017-10-31T02:53:11.231Z,1025.70
2017-10-31T02:53:11.831Z,1025.67
2017-10-31T02:53:12.432Z,1025.70
2017-10-31T02:53:13.035Z,1025.70
2017-10-31T02:53:13.633Z,1025.69
2017-10-31T02:54:07.109Z,1025.70
2017-10-31T02:54:07.683Z,1025.71
2017-10-31T02:54:08.286Z,1025.66
2017-10-31T02:54:08.889Z,1025.68
2017-10-31T02:54:09.487Z,1025.68
2017-10-31T02:54:10.087Z,1025.69
2017-10-31T02:54:10.685Z,1025.72
2017-10-31T02:54:11.284Z,1025.73
2017-10-31T02:55:04.761Z,1025.73
2017-10-31T02:55:05.336Z,1025.73
2017-10-31T02:55:05.936Z,1025.73
2017-10-31T02:55:06.536Z,1025.72
2017-10-31T02:55:07.137Z,1025.70
2017-10-31T02:55:07.735Z,1025.71
2017-10-31T02:55:08.335Z,1025.71
2017-10-31T02:55:08.937Z,1025.72
2017-10-31T02:56:02.413Z,1025.76
2017-10-31T02:56:02.989Z,1025.74
2017-10-31T02:56:03.588Z,1025.73
2017-10-31T02:56:04.188Z,1025.73
2017-10-31T02:56:04.787Z,1025.77
2017-10-31T02:56:05.388Z,1025.76
2017-10-31T02:56:05.987Z,1025.76
2017-10-31T02:56:06.600Z,1025.73
2017-10-31T02:57:00.070Z,1025.78
2017-10-31T02:57:00.645Z,1025.77
2017-10-31T02:57:01.239Z,1025.77
2017-10-31T02:57:01.839Z,1025.76
2017-10-31T02:57:02.447Z,1025.75
2017-10-31T02:57:03.039Z,1025.75
2017-10-31T02:57:03.638Z,1025.75
2017-10-31T02:57:04.247Z,1025.75
2017-10-31T02:57:58.246Z,1025.75
2017-10-31T02:57:58.803Z,1025.76
2017-10-31T02:57:59.403Z,1025.75
2017-10-31T02:58:00.004Z,1025.81
2017-10-31T02:58:00.603Z,1025.78
2017-10-31T02:58:01.203Z,1025.76
2017-10-31T02:58:01.803Z,1025.75
2017-10-31T02:58:56.292Z,1025.76
2017-10-31T02:58:56.867Z,1025.74
2017-10-31T02:58:57.466Z,1025.74
2017-10-31T02:58:58.066Z,1025.74
2017-10-31T02:58:58.671Z,1025.72
2017-10-31T02:58:59.263Z,1025.70
2017-10-31T02:58:59.861Z,1025.76
2017-10-31T02:59:00.463Z,1025.76
2017-10-31T02:59:53.944Z,1025.70
2017-10-31T02:59:54.523Z,1025.72
2017-10-31T02:59:55.116Z,1025.71
2017-10-31T02:59:55.724Z,1025.74
2017-10-31T02:59:56.317Z,1025.69
2017-10-31T02:59:56.916Z,1025.73
2017-10-31T02:59:57.516Z,1025.72
2017-10-31T02:59:58.116Z,1025.73
2017-10-31T03:00:51.598Z,1025.76
2017-10-31T03:00:52.168Z,1025.70
2017-10-31T03:00:52.771Z,1025.71
2017-10-31T03:00:53.369Z,1025.72
2017-10-31T03:00:53.969Z,1025.75
2017-10-31T03:00:54.568Z,1025.71
2017-10-31T03:00:55.168Z,1025.72
2017-10-31T03:00:55.773Z,1025.73
2017-10-31T03:01:49.245Z,1025.74
2017-10-31T03:01:49.819Z,1025.73
2017-10-31T03:01:50.430Z,1025.76
2017-10-31T03:01:51.020Z,1025.74
2017-10-31T03:01:51.618Z,1025.74
2017-10-31T03:01:52.219Z,1025.74
2017-10-31T03:01:53.803Z,1025.74
2017-10-31T03:02:47.822Z,1025.72
2017-10-31T03:02:48.393Z,1025.74
2017-10-31T03:02:48.993Z,1025.76
2017-10-31T03:02:49.593Z,1025.74
2017-10-31T03:02:50.193Z,1025.73
2017-10-31T03:02:50.793Z,1025.70
2017-10-31T03:02:51.391Z,1025.69
2017-10-31T03:02:51.993Z,1025.72
2017-10-31T03:03:46.497Z,1025.73
2017-10-31T03:03:47.069Z,1025.73
2017-10-31T03:03:47.668Z,1025.74
2017-10-31T03:03:48.269Z,1025.75
2017-10-31T03:03:48.874Z,1025.76
2017-10-31T03:03:49.468Z,1025.78
2017-10-31T03:03:50.069Z,1025.75
2017-10-31T03:03:50.674Z,1025.73
2017-10-31T03:04:45.176Z,1025.72
2017-10-31T03:04:45.750Z,1025.70
2017-10-31T03:04:46.344Z,1025.70
2017-10-31T03:04:46.945Z,1025.71
2017-10-31T03:04:47.544Z,1025.71
2017-10-31T03:04:48.147Z,1025.70
2017-10-31T03:04:48.746Z,1025.71
2017-10-31T03:04:49.344Z,1025.70
2017-10-31T03:05:43.333Z,1025.68
2017-10-31T03:05:43.912Z,1025.69
2017-10-31T03:05:44.508Z,1025.72
2017-10-31T03:05:45.108Z,1025.68
2017-10-31T03:05:45.708Z,1025.70
2017-10-31T03:05:46.307Z,1025.71
2017-10-31T03:05:46.907Z,1025.71
2017-10-31T03:06:41.395Z,1025.72
2017-10-31T03:06:41.969Z,1025.72
2017-10-31T03:06:42.573Z,1025.68
2017-10-31T03:06:43.167Z,1025.69
2017-10-31T03:06:43.768Z,1025.70
2017-10-31T03:06:44.367Z,1025.71
2017-10-31T03:06:44.967Z,1025.70
2017-10-31T03:06:45.567Z,1025.73
2017-10-31T03:07:39.047Z,1025.71
2017-10-31T03:07:39.622Z,1025.69
2017-10-31T03:07:40.221Z,1025.69
2017-10-31T03:07:40.827Z,1025.68
2017-10-31T03:07:41.421Z,1025.67
2017-10-31T03:07:42.022Z,1025.67
2017-10-31T03:07:42.621Z,1025.70
2017-10-31T03:07:43.223Z,1025.70
2017-10-31T03:08:36.698Z,1025.69
2017-10-31T03:08:37.273Z,1025.69
2017-10-31T03:08:37.873Z,1025.70
2017-10-31T03:08:38.474Z,1025.73
2017-10-31T03:08:39.074Z,1025.72
2017-10-31T03:08:39.679Z,1025.69
2017-10-31T03:08:40.272Z,1025.68
2017-10-31T03:08:40.873Z,1025.69
2017-10-31T03:09:34.353Z,1025.69
2017-10-31T03:09:34.926Z,1025.67
2017-10-31T03:09:35.530Z,1025.70
2017-10-31T03:09:36.125Z,1025.72
2017-10-31T03:09:36.725Z,1025.70
2017-10-31T03:09:37.326Z,1025.71
2017-10-31T03:09:37.925Z,1025.70
2017-10-31T03:09:38.530Z,1025.65
2017-10-31T03:10:32.003Z,1025.72
2017-10-31T03:10:32.576Z,1025.71
2017-10-31T03:10:33.176Z,1025.72
2017-10-31T03:10:33.776Z,1025.75
2017-10-31T03:10:34.375Z,1025.70
2017-10-31T03:10:34.978Z,1025.73
2017-10-31T03:10:35.576Z,1025.70
2017-10-31T03:10:36.176Z,1025.72
2017-10-31T03:11:30.685Z,1025.72
2017-10-31T03:11:31.252Z,1025.70
2017-10-31T03:11:31.852Z,1025.65
2017-10-31T03:11:32.452Z,1025.69
2017-10-31T03:11:33.053Z,1025.72
2017-10-31T03:11:33.652Z,1025.73
2017-10-31T03:11:34.255Z,1025.74
2017-10-31T03:11:34.851Z,1025.72
2017-10-31T03:12:29.354Z,1025.73
2017-10-31T03:12:29.927Z,1025.73
2017-10-31T03:12:30.528Z,1025.72
2017-10-31T03:12:31.127Z,1025.73
2017-10-31T03:12:31.726Z,1025.70
2017-10-31T03:12:32.329Z,1025.74
2017-10-31T03:12:32.927Z,1025.73
2017-10-31T03:12:33.526Z,1025.71
2017-10-31T03:13:27.005Z,1025.75
2017-10-31T03:13:27.579Z,1025.72
2017-10-31T03:13:28.180Z,1025.71
2017-10-31T03:13:28.785Z,1025.72
2017-10-31T03:13:29.383Z,1025.73
2017-10-31T03:13:29.982Z,1025.76
2017-10-31T03:13:30.580Z,1025.74
2017-10-31T03:13:31.180Z,1025.78
2017-10-31T03:14:25.681Z,1025.77
2017-10-31T03:14:26.255Z,1025.76
2017-10-31T03:14:26.855Z,1025.74
2017-10-31T03:14:27.454Z,1025.75
2017-10-31T03:14:28.054Z,1025.79
2017-10-31T03:14:28.654Z,1025.82
2017-10-31T03:14:29.254Z,1025.78
2017-10-31T03:14:29.868Z,1025.76
2017-10-31T03:15:24.357Z,1025.75
2017-10-31T03:15:24.932Z,1025.72
2017-10-31T03:15:25.530Z,1025.77
2017-10-31T03:15:26.130Z,1025.74
2017-10-31T03:15:26.730Z,1025.74
2017-10-31T03:15:27.331Z,1025.78
2017-10-31T03:15:27.930Z,1025.74
2017-10-31T03:15:28.529Z,1025.77
2017-10-31T03:16:22.007Z,1025.72
2017-10-31T03:16:22.587Z,1025.74
2017-10-31T03:16:23.184Z,1025.75
2017-10-31T03:16:24.559Z,1025.76
2017-10-31T03:16:25.065Z,1025.76
2017-10-31T03:16:25.660Z,1025.76
2017-10-31T03:16:26.260Z,1025.75
2017-10-31T03:17:19.765Z,1025.72
2017-10-31T03:17:20.336Z,1025.74
2017-10-31T03:17:20.937Z,1025.71
2017-10-31T03:17:21.536Z,1025.74
2017-10-31T03:17:22.135Z,1025.73
2017-10-31T03:17:22.736Z,1025.71
2017-10-31T03:17:23.338Z,1025.73
2017-10-31T03:17:23.935Z,1025.68
2017-10-31T03:18:17.427Z,1025.72
2017-10-31T03:18:17.990Z,1025.74
2017-10-31T03:18:18.588Z,1025.73
2017-10-31T03:18:19.190Z,1025.76
2017-10-31T03:18:19.788Z,1025.68
2017-10-31T03:18:20.389Z,1025.69
2017-10-31T03:18:20.988Z,1025.73
2017-10-31T03:18:21.587Z,1025.74
2017-10-31T03:19:16.092Z,1025.72
2017-10-31T03:19:16.663Z,1025.72
2017-10-31T03:19:17.262Z,1025.73
2017-10-31T03:19:17.864Z,1025.72
2017-10-31T03:19:18.465Z,1025.71
2017-10-31T03:19:19.068Z,1025.74
2017-10-31T03:19:19.662Z,1025.69
2017-10-31T03:19:20.262Z,1025.72
2017-10-31T03:20:14.767Z,1025.72
2017-10-31T03:20:15.339Z,1025.72
2017-10-31T03:20:15.939Z,1025.69
2017-10-31T03:20:16.541Z,1025.67
2017-10-31T03:20:17.138Z,1025.70
2017-10-31T03:20:17.739Z,1025.73
2017-10-31T03:20:18.340Z,1025.70